sensor_id;sensor_type;location;lat;lon;timestamp;temperature;humidity
19437;DHT22;9854;50.968;4.168;2023-02-28T00:00:19;3.10;99.90
19437;DHT22;9854;50.968;4.168;2023-02-28T00:02:45;3.00;99.90
19437;DHT22;9854;50.968;4.168;2023-02-28T00:05:12;2.90;99.90
19437;DHT22;9854;50.968;4.168;2023-02-28T00:07:39;2.90;99.90
19437;DHT22;9854;50.968;4.168;2023-02-28T00:10:06;2.90;99.90
19437;DHT22;9854;50.968;4.168;2023-02-28T00:12:33;2.90;99.90
19437;DHT22;9854;50.968;4.168;2023-02-28T00:14:59;2.90;99.90
19437;DHT22;9854;50.968;4.168;2023-02-28T00:17:25;2.90;99.90
19437;DHT22;9854;50.968;4.168;2023-02-28T00:19:51;2.80;99.90
19437;DHT22;9854;50.968;4.168;2023-02-28T00:22:19;2.80;99.90
19437;DHT22;9854;50.968;4.168;2023-02-28T00:24:45;2.80;99.90
19437;DHT22;9854;50.968;4.168;2023-02-28T00:27:11;2.70;99.90
19437;DHT22;9854;50.968;4.168;2023-02-28T00:29:37;2.70;99.90
19437;DHT22;9854;50.968;4.168;2023-02-28T00:32:03;2.70;99.90
19437;DHT22;9854;50.968;4.168;2023-02-28T00:34:29;2.70;99.90
19437;DHT22;9854;50.968;4.168;2023-02-28T00:36:55;2.70;99.90
19437;DHT22;9854;50.968;4.168;2023-02-28T00:39:20;2.70;99.90
19437;DHT22;9854;50.968;4.168;2023-02-28T00:41:46;2.70;99.90
19437;DHT22;9854;50.968;4.168;2023-02-28T00:44:12;2.70;99.90
19437;DHT22;9854;50.968;4.168;2023-02-28T00:46:38;2.70;99.90
19437;DHT22;9854;50.968;4.168;2023-02-28T00:49:03;2.70;99.90
19437;DHT22;9854;50.968;4.168;2023-02-28T00:51:29;2.60;99.90
19437;DHT22;9854;50.968;4.168;2023-02-28T00:53:54;2.60;99.90
19437;DHT22;9854;50.968;4.168;2023-02-28T00:56:20;2.80;99.90
19437;DHT22;9854;50.968;4.168;2023-02-28T00:58:46;3.00;99.90
19437;DHT22;9854;50.968;4.168;2023-02-28T01:01:12;2.90;99.90
19437;DHT22;9854;50.968;4.168;2023-02-28T01:03:37;2.80;99.90
19437;DHT22;9854;50.968;4.168;2023-02-28T01:06:04;2.50;99.90
19437;DHT22;9854;50.968;4.168;2023-02-28T01:08:30;2.40;99.90
19437;DHT22;9854;50.968;4.168;2023-02-28T01:10:55;2.40;99.90
19437;DHT22;9854;50.968;4.168;2023-02-28T01:13:21;2.30;99.90
19437;DHT22;9854;50.968;4.168;2023-02-28T01:15:54;2.20;99.90
19437;DHT22;9854;50.968;4.168;2023-02-28T01:18:21;2.20;99.90
19437;DHT22;9854;50.968;4.168;2023-02-28T01:21:11;2.30;99.90
19437;DHT22;9854;50.968;4.168;2023-02-28T01:23:38;2.20;99.90
19437;DHT22;9854;50.968;4.168;2023-02-28T01:26:07;2.20;99.90
19437;DHT22;9854;50.968;4.168;2023-02-28T01:28:33;2.50;99.90
19437;DHT22;9854;50.968;4.168;2023-02-28T01:30:59;2.60;99.90
19437;DHT22;9854;50.968;4.168;2023-02-28T01:33:25;2.60;99.90
19437;DHT22;9854;50.968;4.168;2023-02-28T01:36:04;2.60;99.90
19437;DHT22;9854;50.968;4.168;2023-02-28T01:38:31;2.60;99.90
19437;DHT22;9854;50.968;4.168;2023-02-28T01:40:57;2.60;99.90
19437;DHT22;9854;50.968;4.168;2023-02-28T01:43:52;2.50;99.90
19437;DHT22;9854;50.968;4.168;2023-02-28T01:46:14;2.50;99.90
19437;DHT22;9854;50.968;4.168;2023-02-28T01:48:46;2.40;99.90
19437;DHT22;9854;50.968;4.168;2023-02-28T01:51:22;2.40;99.90
19437;DHT22;9854;50.968;4.168;2023-02-28T01:53:52;2.40;99.90
19437;DHT22;9854;50.968;4.168;2023-02-28T01:56:27;2.30;99.90
19437;DHT22;9854;50.968;4.168;2023-02-28T01:58:53;2.30;99.90
19437;DHT22;9854;50.968;4.168;2023-02-28T02:01:21;2.20;99.90
19437;DHT22;9854;50.968;4.168;2023-02-28T02:03:56;2.20;99.90
19437;DHT22;9854;50.968;4.168;2023-02-28T02:06:26;2.20;99.90
19437;DHT22;9854;50.968;4.168;2023-02-28T02:08:53;2.10;99.90
19437;DHT22;9854;50.968;4.168;2023-02-28T02:11:21;2.10;99.90
19437;DHT22;9854;50.968;4.168;2023-02-28T02:16:35;2.20;99.90
19437;DHT22;9854;50.968;4.168;2023-02-28T02:30:48;2.20;99.90
19437;DHT22;9854;50.968;4.168;2023-02-28T02:36:07;2.10;99.90
19437;DHT22;9854;50.968;4.168;2023-02-28T02:41:25;2.10;99.90
19437;DHT22;9854;50.968;4.168;2023-02-28T02:44:18;2.10;99.90
19437;DHT22;9854;50.968;4.168;2023-02-28T02:46:47;2.10;99.90
19437;DHT22;9854;50.968;4.168;2023-02-28T02:49:26;2.00;99.90
19437;DHT22;9854;50.968;4.168;2023-02-28T02:51:53;2.00;99.90
19437;DHT22;9854;50.968;4.168;2023-02-28T02:54:33;2.00;99.90
19437;DHT22;9854;50.968;4.168;2023-02-28T02:57:05;2.00;99.90
19437;DHT22;9854;50.968;4.168;2023-02-28T02:59:33;2.00;99.90
19437;DHT22;9854;50.968;4.168;2023-02-28T03:02:03;2.00;99.90
19437;DHT22;9854;50.968;4.168;2023-02-28T03:04:37;1.90;99.90
19437;DHT22;9854;50.968;4.168;2023-02-28T03:07:05;2.00;99.90
19437;DHT22;9854;50.968;4.168;2023-02-28T03:09:33;2.00;99.90
19437;DHT22;9854;50.968;4.168;2023-02-28T03:12:00;2.00;99.90
19437;DHT22;9854;50.968;4.168;2023-02-28T03:14:35;2.00;99.90
19437;DHT22;9854;50.968;4.168;2023-02-28T03:25:22;2.00;99.90
19437;DHT22;9854;50.968;4.168;2023-02-28T03:28:00;1.90;99.90
19437;DHT22;9854;50.968;4.168;2023-02-28T03:30:50;1.90;99.90
19437;DHT22;9854;50.968;4.168;2023-02-28T03:33:23;1.90;99.90
19437;DHT22;9854;50.968;4.168;2023-02-28T03:35:59;1.90;99.90
19437;DHT22;9854;50.968;4.168;2023-02-28T03:38:28;1.90;99.90
19437;DHT22;9854;50.968;4.168;2023-02-28T03:41:01;1.80;99.90
19437;DHT22;9854;50.968;4.168;2023-02-28T03:43:31;1.80;99.90
19437;DHT22;9854;50.968;4.168;2023-02-28T03:45:59;1.80;99.90
19437;DHT22;9854;50.968;4.168;2023-02-28T03:48:44;1.80;99.90
19437;DHT22;9854;50.968;4.168;2023-02-28T03:51:15;1.80;99.90
19437;DHT22;9854;50.968;4.168;2023-02-28T03:53:46;1.80;99.90
19437;DHT22;9854;50.968;4.168;2023-02-28T03:56:19;1.70;99.90
19437;DHT22;9854;50.968;4.168;2023-02-28T03:59:28;1.70;99.90
19437;DHT22;9854;50.968;4.168;2023-02-28T04:01:40;1.70;99.90
19437;DHT22;9854;50.968;4.168;2023-02-28T04:04:08;1.80;99.90
19437;DHT22;9854;50.968;4.168;2023-02-28T04:06:35;1.70;99.90
19437;DHT22;9854;50.968;4.168;2023-02-28T04:09:02;1.70;99.90
19437;DHT22;9854;50.968;4.168;2023-02-28T04:11:35;1.70;99.90
19437;DHT22;9854;50.968;4.168;2023-02-28T04:14:03;1.70;99.90
19437;DHT22;9854;50.968;4.168;2023-02-28T04:16:30;1.70;99.90
19437;DHT22;9854;50.968;4.168;2023-02-28T04:18:56;1.60;99.90
19437;DHT22;9854;50.968;4.168;2023-02-28T04:21:28;1.60;99.90
19437;DHT22;9854;50.968;4.168;2023-02-28T04:23:54;1.70;99.90
19437;DHT22;9854;50.968;4.168;2023-02-28T04:26:20;1.60;99.90
19437;DHT22;9854;50.968;4.168;2023-02-28T04:28:46;1.60;99.90
19437;DHT22;9854;50.968;4.168;2023-02-28T04:31:11;1.50;99.90
19437;DHT22;9854;50.968;4.168;2023-02-28T04:33:37;1.70;99.90
19437;DHT22;9854;50.968;4.168;2023-02-28T04:36:05;1.80;99.90
19437;DHT22;9854;50.968;4.168;2023-02-28T04:38:33;1.80;99.90
19437;DHT22;9854;50.968;4.168;2023-02-28T04:41:00;1.90;99.90
19437;DHT22;9854;50.968;4.168;2023-02-28T04:43:26;1.80;99.90
19437;DHT22;9854;50.968;4.168;2023-02-28T04:45:52;1.80;99.90
19437;DHT22;9854;50.968;4.168;2023-02-28T04:48:19;2.20;99.90
19437;DHT22;9854;50.968;4.168;2023-02-28T04:50:45;2.20;99.90
19437;DHT22;9854;50.968;4.168;2023-02-28T04:53:11;2.20;99.90
19437;DHT22;9854;50.968;4.168;2023-02-28T04:55:36;2.50;99.90
19437;DHT22;9854;50.968;4.168;2023-02-28T04:58:05;2.30;99.90
19437;DHT22;9854;50.968;4.168;2023-02-28T05:00:31;2.40;99.90
19437;DHT22;9854;50.968;4.168;2023-02-28T05:02:56;2.40;99.90
19437;DHT22;9854;50.968;4.168;2023-02-28T05:05:22;2.40;99.90
19437;DHT22;9854;50.968;4.168;2023-02-28T05:07:47;2.40;99.90
19437;DHT22;9854;50.968;4.168;2023-02-28T05:10:13;2.40;99.90
19437;DHT22;9854;50.968;4.168;2023-02-28T05:12:39;2.40;99.90
19437;DHT22;9854;50.968;4.168;2023-02-28T05:15:05;2.60;99.90
19437;DHT22;9854;50.968;4.168;2023-02-28T05:17:31;2.60;99.90
19437;DHT22;9854;50.968;4.168;2023-02-28T05:19:56;2.60;99.90
19437;DHT22;9854;50.968;4.168;2023-02-28T05:22:22;2.60;99.90
19437;DHT22;9854;50.968;4.168;2023-02-28T05:24:48;2.70;99.90
19437;DHT22;9854;50.968;4.168;2023-02-28T05:27:13;2.70;99.90
19437;DHT22;9854;50.968;4.168;2023-02-28T05:29:39;2.80;99.90
19437;DHT22;9854;50.968;4.168;2023-02-28T05:32:12;3.00;99.90
19437;DHT22;9854;50.968;4.168;2023-02-28T05:34:38;3.10;99.90
19437;DHT22;9854;50.968;4.168;2023-02-28T05:37:05;3.10;99.90
19437;DHT22;9854;50.968;4.168;2023-02-28T05:39:31;3.10;99.90
19437;DHT22;9854;50.968;4.168;2023-02-28T05:41:56;3.10;99.90
19437;DHT22;9854;50.968;4.168;2023-02-28T05:44:22;3.10;99.90
19437;DHT22;9854;50.968;4.168;2023-02-28T05:46:48;3.00;99.90
19437;DHT22;9854;50.968;4.168;2023-02-28T05:49:13;3.30;99.90
19437;DHT22;9854;50.968;4.168;2023-02-28T05:51:39;3.20;99.90
19437;DHT22;9854;50.968;4.168;2023-02-28T05:54:05;3.20;99.90
19437;DHT22;9854;50.968;4.168;2023-02-28T05:56:31;3.20;99.90
19437;DHT22;9854;50.968;4.168;2023-02-28T05:58:57;3.10;99.90
19437;DHT22;9854;50.968;4.168;2023-02-28T06:01:37;2.80;99.90
19437;DHT22;9854;50.968;4.168;2023-02-28T06:04:05;2.80;99.90
19437;DHT22;9854;50.968;4.168;2023-02-28T06:06:31;2.90;99.90
19437;DHT22;9854;50.968;4.168;2023-02-28T06:08:59;3.00;99.90
19437;DHT22;9854;50.968;4.168;2023-02-28T06:11:26;3.10;99.90
19437;DHT22;9854;50.968;4.168;2023-02-28T06:13:59;3.10;99.90
19437;DHT22;9854;50.968;4.168;2023-02-28T06:16:27;3.10;99.90
19437;DHT22;9854;50.968;4.168;2023-02-28T06:18:53;3.20;99.90
19437;DHT22;9854;50.968;4.168;2023-02-28T06:21:22;3.20;99.90
19437;DHT22;9854;50.968;4.168;2023-02-28T06:23:47;3.20;99.90
19437;DHT22;9854;50.968;4.168;2023-02-28T06:26:13;3.30;99.90
19437;DHT22;9854;50.968;4.168;2023-02-28T06:28:39;3.30;99.90
19437;DHT22;9854;50.968;4.168;2023-02-28T06:31:07;3.30;99.90
19437;DHT22;9854;50.968;4.168;2023-02-28T06:33:33;3.40;99.90
19437;DHT22;9854;50.968;4.168;2023-02-28T06:35:59;3.40;99.90
19437;DHT22;9854;50.968;4.168;2023-02-28T06:38:24;3.50;99.90
19437;DHT22;9854;50.968;4.168;2023-02-28T06:40:54;3.50;99.90
19437;DHT22;9854;50.968;4.168;2023-02-28T06:43:20;3.50;99.90
19437;DHT22;9854;50.968;4.168;2023-02-28T06:45:46;3.50;99.90
19437;DHT22;9854;50.968;4.168;2023-02-28T06:48:11;3.50;99.90
19437;DHT22;9854;50.968;4.168;2023-02-28T06:50:38;3.60;99.90
19437;DHT22;9854;50.968;4.168;2023-02-28T06:53:03;3.70;99.90
19437;DHT22;9854;50.968;4.168;2023-02-28T06:55:29;3.70;99.90
19437;DHT22;9854;50.968;4.168;2023-02-28T06:57:55;3.70;99.90
19437;DHT22;9854;50.968;4.168;2023-02-28T07:00:21;3.80;99.90
19437;DHT22;9854;50.968;4.168;2023-02-28T07:02:46;3.80;99.90
19437;DHT22;9854;50.968;4.168;2023-02-28T07:05:13;3.80;99.90
19437;DHT22;9854;50.968;4.168;2023-02-28T07:07:39;3.90;99.90
19437;DHT22;9854;50.968;4.168;2023-02-28T07:10:11;3.90;99.90
19437;DHT22;9854;50.968;4.168;2023-02-28T07:12:38;4.00;99.90
19437;DHT22;9854;50.968;4.168;2023-02-28T07:15:04;4.00;99.90
19437;DHT22;9854;50.968;4.168;2023-02-28T07:17:30;4.10;99.90
19437;DHT22;9854;50.968;4.168;2023-02-28T07:19:56;4.20;99.90
19437;DHT22;9854;50.968;4.168;2023-02-28T07:22:22;4.20;99.90
19437;DHT22;9854;50.968;4.168;2023-02-28T07:24:47;4.30;99.90
19437;DHT22;9854;50.968;4.168;2023-02-28T07:27:13;4.40;99.90
19437;DHT22;9854;50.968;4.168;2023-02-28T07:29:49;4.40;99.90
19437;DHT22;9854;50.968;4.168;2023-02-28T07:32:15;4.50;99.90
19437;DHT22;9854;50.968;4.168;2023-02-28T07:34:41;4.50;99.90
19437;DHT22;9854;50.968;4.168;2023-02-28T07:37:07;4.50;99.90
19437;DHT22;9854;50.968;4.168;2023-02-28T07:39:32;4.60;99.90
19437;DHT22;9854;50.968;4.168;2023-02-28T07:41:58;4.70;99.90
19437;DHT22;9854;50.968;4.168;2023-02-28T07:44:25;4.80;99.90
19437;DHT22;9854;50.968;4.168;2023-02-28T07:46:51;4.70;99.90
19437;DHT22;9854;50.968;4.168;2023-02-28T07:49:18;4.80;99.90
19437;DHT22;9854;50.968;4.168;2023-02-28T07:51:43;4.70;99.90
19437;DHT22;9854;50.968;4.168;2023-02-28T07:54:09;4.80;99.90
19437;DHT22;9854;50.968;4.168;2023-02-28T07:56:34;4.90;99.90
19437;DHT22;9854;50.968;4.168;2023-02-28T07:59:00;5.00;99.90
19437;DHT22;9854;50.968;4.168;2023-02-28T08:01:27;5.10;99.90
19437;DHT22;9854;50.968;4.168;2023-02-28T08:03:52;5.20;99.90
19437;DHT22;9854;50.968;4.168;2023-02-28T08:06:22;5.40;99.90
19437;DHT22;9854;50.968;4.168;2023-02-28T08:08:48;5.50;99.90
19437;DHT22;9854;50.968;4.168;2023-02-28T08:11:15;5.60;99.90
19437;DHT22;9854;50.968;4.168;2023-02-28T08:13:41;5.60;99.90
19437;DHT22;9854;50.968;4.168;2023-02-28T08:16:12;5.60;99.90
19437;DHT22;9854;50.968;4.168;2023-02-28T08:18:40;5.70;99.90
19437;DHT22;9854;50.968;4.168;2023-02-28T08:21:10;5.70;99.90
19437;DHT22;9854;50.968;4.168;2023-02-28T08:23:36;5.80;99.90
19437;DHT22;9854;50.968;4.168;2023-02-28T08:26:02;5.80;99.90
19437;DHT22;9854;50.968;4.168;2023-02-28T08:28:28;5.80;99.90
19437;DHT22;9854;50.968;4.168;2023-02-28T08:30:54;5.90;99.90
19437;DHT22;9854;50.968;4.168;2023-02-28T08:33:20;6.00;99.90
19437;DHT22;9854;50.968;4.168;2023-02-28T08:35:46;5.90;99.90
19437;DHT22;9854;50.968;4.168;2023-02-28T08:38:12;6.00;99.90
19437;DHT22;9854;50.968;4.168;2023-02-28T08:40:37;6.00;99.90
19437;DHT22;9854;50.968;4.168;2023-02-28T08:43:03;5.90;99.90
19437;DHT22;9854;50.968;4.168;2023-02-28T08:45:28;5.90;99.90
19437;DHT22;9854;50.968;4.168;2023-02-28T08:47:55;6.00;99.90
19437;DHT22;9854;50.968;4.168;2023-02-28T08:50:21;6.10;99.90
19437;DHT22;9854;50.968;4.168;2023-02-28T08:52:47;6.20;99.90
19437;DHT22;9854;50.968;4.168;2023-02-28T08:55:12;6.10;99.90
19437;DHT22;9854;50.968;4.168;2023-02-28T08:57:38;6.20;99.90
19437;DHT22;9854;50.968;4.168;2023-02-28T09:00:04;6.20;99.90
19437;DHT22;9854;50.968;4.168;2023-02-28T09:02:31;6.10;99.90
19437;DHT22;9854;50.968;4.168;2023-02-28T09:04:57;6.20;99.90
19437;DHT22;9854;50.968;4.168;2023-02-28T09:07:23;6.30;99.90
19437;DHT22;9854;50.968;4.168;2023-02-28T09:09:49;6.20;99.90
19437;DHT22;9854;50.968;4.168;2023-02-28T09:12:25;6.40;99.90
19437;DHT22;9854;50.968;4.168;2023-02-28T09:14:51;6.50;99.90
19437;DHT22;9854;50.968;4.168;2023-02-28T09:17:18;6.30;99.90
19437;DHT22;9854;50.968;4.168;2023-02-28T09:19:44;6.10;99.90
19437;DHT22;9854;50.968;4.168;2023-02-28T09:22:10;6.00;99.90
19437;DHT22;9854;50.968;4.168;2023-02-28T09:24:37;6.20;99.90
19437;DHT22;9854;50.968;4.168;2023-02-28T09:27:03;6.40;99.90
19437;DHT22;9854;50.968;4.168;2023-02-28T09:29:29;6.60;99.90
19437;DHT22;9854;50.968;4.168;2023-02-28T09:31:55;6.70;99.90
19437;DHT22;9854;50.968;4.168;2023-02-28T09:34:24;7.10;99.90
19437;DHT22;9854;50.968;4.168;2023-02-28T09:36:50;7.30;99.90
19437;DHT22;9854;50.968;4.168;2023-02-28T09:39:20;7.40;99.90
19437;DHT22;9854;50.968;4.168;2023-02-28T09:41:50;7.60;99.90
19437;DHT22;9854;50.968;4.168;2023-02-28T09:44:24;7.80;99.90
19437;DHT22;9854;50.968;4.168;2023-02-28T09:47:07;7.80;99.90
19437;DHT22;9854;50.968;4.168;2023-02-28T09:49:47;7.80;99.90
19437;DHT22;9854;50.968;4.168;2023-02-28T09:52:21;7.90;99.90
19437;DHT22;9854;50.968;4.168;2023-02-28T09:54:49;7.80;99.90
19437;DHT22;9854;50.968;4.168;2023-02-28T10:00:06;7.50;99.90
19437;DHT22;9854;50.968;4.168;2023-02-28T10:05:43;7.30;99.90
19437;DHT22;9854;50.968;4.168;2023-02-28T10:08:36;7.30;99.90
19437;DHT22;9854;50.968;4.168;2023-02-28T10:11:09;7.50;99.90
19437;DHT22;9854;50.968;4.168;2023-02-28T10:14:02;7.40;99.90
19437;DHT22;9854;50.968;4.168;2023-02-28T10:16:46;7.00;99.90
19437;DHT22;9854;50.968;4.168;2023-02-28T10:19:26;6.90;99.90
19437;DHT22;9854;50.968;4.168;2023-02-28T10:24:45;7.10;99.90
19437;DHT22;9854;50.968;4.168;2023-02-28T10:29:44;7.40;99.90
19437;DHT22;9854;50.968;4.168;2023-02-28T10:32:14;7.60;99.90
19437;DHT22;9854;50.968;4.168;2023-02-28T10:34:40;7.80;99.90
19437;DHT22;9854;50.968;4.168;2023-02-28T10:37:07;7.80;99.90
19437;DHT22;9854;50.968;4.168;2023-02-28T10:39:41;8.00;99.90
19437;DHT22;9854;50.968;4.168;2023-02-28T10:42:20;7.90;99.90
19437;DHT22;9854;50.968;4.168;2023-02-28T10:44:47;7.90;99.90
19437;DHT22;9854;50.968;4.168;2023-02-28T10:47:17;7.90;99.90
19437;DHT22;9854;50.968;4.168;2023-02-28T10:49:50;8.00;99.90
19437;DHT22;9854;50.968;4.168;2023-02-28T10:52:38;8.10;99.90
19437;DHT22;9854;50.968;4.168;2023-02-28T10:55:34;8.00;99.90
19437;DHT22;9854;50.968;4.168;2023-02-28T10:57:59;7.50;99.90
19437;DHT22;9854;50.968;4.168;2023-02-28T11:00:32;7.50;99.90
19437;DHT22;9854;50.968;4.168;2023-02-28T11:02:59;7.50;99.90
19437;DHT22;9854;50.968;4.168;2023-02-28T11:05:32;7.70;99.90
19437;DHT22;9854;50.968;4.168;2023-02-28T11:08:19;7.60;99.90
19437;DHT22;9854;50.968;4.168;2023-02-28T11:11:08;7.90;99.90
19437;DHT22;9854;50.968;4.168;2023-02-28T11:13:35;8.20;99.90
19437;DHT22;9854;50.968;4.168;2023-02-28T11:16:09;8.40;99.90
19437;DHT22;9854;50.968;4.168;2023-02-28T11:21:37;8.50;99.90
19437;DHT22;9854;50.968;4.168;2023-02-28T11:24:28;8.60;99.90
19437;DHT22;9854;50.968;4.168;2023-02-28T11:26:56;8.80;99.90
19437;DHT22;9854;50.968;4.168;2023-02-28T11:32:17;8.80;99.90
19437;DHT22;9854;50.968;4.168;2023-02-28T11:34:44;8.60;99.90
19437;DHT22;9854;50.968;4.168;2023-02-28T11:37:13;8.50;99.90
19437;DHT22;9854;50.968;4.168;2023-02-28T11:39:40;8.60;99.90
19437;DHT22;9854;50.968;4.168;2023-02-28T11:42:32;8.70;99.90
19437;DHT22;9854;50.968;4.168;2023-02-28T11:55:58;8.90;99.90
19437;DHT22;9854;50.968;4.168;2023-02-28T11:58:50;8.70;99.90
19437;DHT22;9854;50.968;4.168;2023-02-28T12:07:32;8.80;99.90
19437;DHT22;9854;50.968;4.168;2023-02-28T12:13:08;9.00;99.90
19437;DHT22;9854;50.968;4.168;2023-02-28T12:26:44;9.20;99.90
19437;DHT22;9854;50.968;4.168;2023-02-28T12:31:58;9.60;99.90
19437;DHT22;9854;50.968;4.168;2023-02-28T12:34:32;9.90;99.90
19437;DHT22;9854;50.968;4.168;2023-02-28T12:37:03;9.90;99.90
19437;DHT22;9854;50.968;4.168;2023-02-28T12:39:55;9.90;99.90
19437;DHT22;9854;50.968;4.168;2023-02-28T12:42:29;10.00;99.90
19437;DHT22;9854;50.968;4.168;2023-02-28T12:45:03;9.80;99.90
19437;DHT22;9854;50.968;4.168;2023-02-28T12:47:30;9.90;99.90
19437;DHT22;9854;50.968;4.168;2023-02-28T12:50:03;10.10;99.90
19437;DHT22;9854;50.968;4.168;2023-02-28T12:57:58;10.80;99.90
19437;DHT22;9854;50.968;4.168;2023-02-28T13:00:35;10.80;99.90
19437;DHT22;9854;50.968;4.168;2023-02-28T13:09:14;11.00;99.90
19437;DHT22;9854;50.968;4.168;2023-02-28T13:11:46;10.90;99.90
19437;DHT22;9854;50.968;4.168;2023-02-28T13:14:45;10.50;99.90
19437;DHT22;9854;50.968;4.168;2023-02-28T13:17:13;10.20;99.90
19437;DHT22;9854;50.968;4.168;2023-02-28T13:27:50;10.50;99.90
19437;DHT22;9854;50.968;4.168;2023-02-28T13:33:27;10.70;99.90
19437;DHT22;9854;50.968;4.168;2023-02-28T13:46:28;11.80;99.90
19437;DHT22;9854;50.968;4.168;2023-02-28T13:48:54;11.70;99.90
19437;DHT22;9854;50.968;4.168;2023-02-28T13:51:40;11.20;99.90
19437;DHT22;9854;50.968;4.168;2023-02-28T14:05:41;11.20;99.90
19437;DHT22;9854;50.968;4.168;2023-02-28T14:10:44;11.50;99.90
19437;DHT22;9854;50.968;4.168;2023-02-28T14:16:05;11.50;99.90
19437;DHT22;9854;50.968;4.168;2023-02-28T14:18:37;11.20;99.90
19437;DHT22;9854;50.968;4.168;2023-02-28T14:37:51;12.40;99.90
19437;DHT22;9854;50.968;4.168;2023-02-28T14:42:54;11.30;99.90
19437;DHT22;9854;50.968;4.168;2023-02-28T14:45:22;10.80;99.90
19437;DHT22;9854;50.968;4.168;2023-02-28T14:47:49;11.20;99.90
19437;DHT22;9854;50.968;4.168;2023-02-28T14:50:23;11.20;99.90
19437;DHT22;9854;50.968;4.168;2023-02-28T14:52:53;11.60;99.90
19437;DHT22;9854;50.968;4.168;2023-02-28T14:55:24;12.00;99.90
19437;DHT22;9854;50.968;4.168;2023-02-28T14:57:54;12.40;99.90
19437;DHT22;9854;50.968;4.168;2023-02-28T15:00:32;12.20;99.90
19437;DHT22;9854;50.968;4.168;2023-02-28T15:02:59;12.70;99.90
19437;DHT22;9854;50.968;4.168;2023-02-28T15:05:33;12.60;99.90
19437;DHT22;9854;50.968;4.168;2023-02-28T15:08:12;12.80;99.90
19437;DHT22;9854;50.968;4.168;2023-02-28T15:10:42;13.30;99.90
19437;DHT22;9854;50.968;4.168;2023-02-28T15:13:13;12.60;99.90
19437;DHT22;9854;50.968;4.168;2023-02-28T15:15:58;12.40;99.90
19437;DHT22;9854;50.968;4.168;2023-02-28T15:18:46;12.00;99.90
19437;DHT22;9854;50.968;4.168;2023-02-28T15:21:19;12.30;99.90
19437;DHT22;9854;50.968;4.168;2023-02-28T15:23:50;12.00;99.90
19437;DHT22;9854;50.968;4.168;2023-02-28T15:26:20;12.20;99.90
19437;DHT22;9854;50.968;4.168;2023-02-28T15:28:46;12.40;99.90
19437;DHT22;9854;50.968;4.168;2023-02-28T15:31:49;12.30;99.90
19437;DHT22;9854;50.968;4.168;2023-02-28T15:34:28;12.40;99.90
19437;DHT22;9854;50.968;4.168;2023-02-28T15:36:54;12.40;99.90
19437;DHT22;9854;50.968;4.168;2023-02-28T15:39:25;12.30;99.90
19437;DHT22;9854;50.968;4.168;2023-02-28T15:41:54;12.10;99.90
19437;DHT22;9854;50.968;4.168;2023-02-28T15:44:34;11.80;99.90
19437;DHT22;9854;50.968;4.168;2023-02-28T15:47:03;12.00;99.90
19437;DHT22;9854;50.968;4.168;2023-02-28T15:49:38;11.20;99.90
19437;DHT22;9854;50.968;4.168;2023-02-28T15:52:04;11.50;99.90
19437;DHT22;9854;50.968;4.168;2023-02-28T15:54:33;11.90;99.90
19437;DHT22;9854;50.968;4.168;2023-02-28T15:57:14;11.80;99.90
19437;DHT22;9854;50.968;4.168;2023-02-28T15:59:48;11.30;99.90
19437;DHT22;9854;50.968;4.168;2023-02-28T16:02:18;11.60;99.90
19437;DHT22;9854;50.968;4.168;2023-02-28T16:04:56;12.50;99.90
19437;DHT22;9854;50.968;4.168;2023-02-28T16:07:22;12.60;99.90
19437;DHT22;9854;50.968;4.168;2023-02-28T16:09:48;13.00;99.90
19437;DHT22;9854;50.968;4.168;2023-02-28T16:12:13;13.20;99.90
19437;DHT22;9854;50.968;4.168;2023-02-28T16:14:39;12.50;99.90
19437;DHT22;9854;50.968;4.168;2023-02-28T16:17:20;12.30;99.90
19437;DHT22;9854;50.968;4.168;2023-02-28T16:19:46;12.40;99.90
19437;DHT22;9854;50.968;4.168;2023-02-28T16:22:12;12.40;99.90
19437;DHT22;9854;50.968;4.168;2023-02-28T16:24:37;12.60;99.90
19437;DHT22;9854;50.968;4.168;2023-02-28T16:27:05;12.40;99.90
19437;DHT22;9854;50.968;4.168;2023-02-28T16:29:35;13.00;99.90
19437;DHT22;9854;50.968;4.168;2023-02-28T16:32:05;13.70;99.90
19437;DHT22;9854;50.968;4.168;2023-02-28T16:34:31;14.20;99.90
19437;DHT22;9854;50.968;4.168;2023-02-28T16:36:57;13.70;99.90
19437;DHT22;9854;50.968;4.168;2023-02-28T16:39:24;13.30;99.90
19437;DHT22;9854;50.968;4.168;2023-02-28T16:41:50;13.50;99.90
19437;DHT22;9854;50.968;4.168;2023-02-28T16:44:27;14.00;99.90
19437;DHT22;9854;50.968;4.168;2023-02-28T16:46:53;13.90;99.90
19437;DHT22;9854;50.968;4.168;2023-02-28T16:49:19;13.30;99.90
19437;DHT22;9854;50.968;4.168;2023-02-28T16:51:44;12.20;99.90
19437;DHT22;9854;50.968;4.168;2023-02-28T16:54:10;12.20;99.90
19437;DHT22;9854;50.968;4.168;2023-02-28T16:56:38;12.00;99.90
19437;DHT22;9854;50.968;4.168;2023-02-28T16:59:07;11.50;99.90
19437;DHT22;9854;50.968;4.168;2023-02-28T17:01:33;11.20;99.90
19437;DHT22;9854;50.968;4.168;2023-02-28T17:03:59;11.10;99.90
19437;DHT22;9854;50.968;4.168;2023-02-28T17:06:28;10.50;99.90
19437;DHT22;9854;50.968;4.168;2023-02-28T17:08:55;10.20;99.90
19437;DHT22;9854;50.968;4.168;2023-02-28T17:11:22;9.90;99.90
19437;DHT22;9854;50.968;4.168;2023-02-28T17:13:48;9.70;99.90
19437;DHT22;9854;50.968;4.168;2023-02-28T17:16:30;9.30;99.90
19437;DHT22;9854;50.968;4.168;2023-02-28T17:18:59;9.30;99.90
19437;DHT22;9854;50.968;4.168;2023-02-28T17:21:25;8.90;99.90
19437;DHT22;9854;50.968;4.168;2023-02-28T17:23:50;8.80;99.90
19437;DHT22;9854;50.968;4.168;2023-02-28T17:26:18;8.70;99.90
19437;DHT22;9854;50.968;4.168;2023-02-28T17:28:48;8.50;99.90
19437;DHT22;9854;50.968;4.168;2023-02-28T17:31:14;8.40;99.90
19437;DHT22;9854;50.968;4.168;2023-02-28T17:33:40;8.30;99.90
19437;DHT22;9854;50.968;4.168;2023-02-28T17:36:08;8.20;99.90
19437;DHT22;9854;50.968;4.168;2023-02-28T17:38:35;8.00;99.90
19437;DHT22;9854;50.968;4.168;2023-02-28T17:41:01;7.70;99.90
19437;DHT22;9854;50.968;4.168;2023-02-28T17:43:27;7.50;99.90
19437;DHT22;9854;50.968;4.168;2023-02-28T17:45:53;7.50;99.90
19437;DHT22;9854;50.968;4.168;2023-02-28T17:48:19;7.40;99.90
19437;DHT22;9854;50.968;4.168;2023-02-28T17:50:45;7.30;99.90
19437;DHT22;9854;50.968;4.168;2023-02-28T17:53:11;7.10;99.90
19437;DHT22;9854;50.968;4.168;2023-02-28T17:55:37;7.00;99.90
19437;DHT22;9854;50.968;4.168;2023-02-28T17:58:03;7.00;99.90
19437;DHT22;9854;50.968;4.168;2023-02-28T18:00:29;7.00;99.90
19437;DHT22;9854;50.968;4.168;2023-02-28T18:02:57;6.80;99.90
19437;DHT22;9854;50.968;4.168;2023-02-28T18:05:23;6.60;99.90
19437;DHT22;9854;50.968;4.168;2023-02-28T18:07:49;6.60;99.90
19437;DHT22;9854;50.968;4.168;2023-02-28T18:10:19;6.50;99.90
19437;DHT22;9854;50.968;4.168;2023-02-28T18:12:50;6.30;99.90
19437;DHT22;9854;50.968;4.168;2023-02-28T18:15:17;6.20;99.90
19437;DHT22;9854;50.968;4.168;2023-02-28T18:17:45;6.20;99.90
19437;DHT22;9854;50.968;4.168;2023-02-28T18:20:11;6.10;99.90
19437;DHT22;9854;50.968;4.168;2023-02-28T18:22:38;6.00;99.90
19437;DHT22;9854;50.968;4.168;2023-02-28T18:25:05;6.00;99.90
19437;DHT22;9854;50.968;4.168;2023-02-28T18:27:34;5.90;99.90
19437;DHT22;9854;50.968;4.168;2023-02-28T18:30:01;5.90;99.90
19437;DHT22;9854;50.968;4.168;2023-02-28T18:32:28;5.90;99.90
19437;DHT22;9854;50.968;4.168;2023-02-28T18:34:53;5.90;99.90
19437;DHT22;9854;50.968;4.168;2023-02-28T18:37:19;5.80;99.90
19437;DHT22;9854;50.968;4.168;2023-02-28T18:39:46;6.00;99.90
19437;DHT22;9854;50.968;4.168;2023-02-28T18:42:11;5.80;99.90